In Rescue
 
Open Full Screen Window  High Contrast Mode
October 29, 2020 11:06 PM CDT
Weather Information
Wind Direction
  ---
Wind Speed
  00 kt (0 mph)
Wind Gust
  00 kt (0 mph)
Altimeter
30.13 in
Visibility
10 SM
Temperature
-01° C
30° F
Dewpoint
-06° C
21° F
Humidity
69%
1hr Rain Fall
00.00 in.
24hr Rain Fall
00.00 in.
Sky Condition
Overcast @ 6,000 ft
VFR

METAR KHZX 300406Z AUTO 00000KT 10SM OVC060 M01/M06 A3013 RMK AO2

FAA Disclaimer: The data displayed is for advisory purposes only and is not to be used for flight planning or operations.